Time;durP1;ratioP1;P1;durP2;ratioP2;P2;SDS_P1;SDS_P2;PMS_P1;PMS_P2;Temp;Humidity;BMP_temperature;BMP_pressure;BME280_temperature;BME280_humidity;BME280_pressure;Samples;Min_cycle;Max_cycle;Signal;HPM_P1;HPM_P2
2023/12/26 00:02:16;;;;;;;2.20;2.00;;;;;;;20.47;49.82;97120.22;5012200;28;20269;-26
2023/12/26 00:04:42;;;;;;;2.27;2.00;;;;;;;20.47;49.96;97125.34;5013171;28;20218;-26
2023/12/26 00:07:09;;;;;;;2.30;2.10;;;;;;;20.47;49.99;97120.22;5007084;28;20738;-30
2023/12/26 00:09:40;;;;;;;2.33;1.97;;;;;;;20.47;49.75;97124.47;5013224;28;20202;-28
2023/12/26 00:12:07;;;;;;;2.40;2.20;;;;;;;20.47;49.74;97116.81;5013176;28;20202;-26
2023/12/26 00:14:33;;;;;;;2.30;2.10;;;;;;;20.46;50.05;97112.53;5013504;28;20234;-26
2023/12/26 00:17:00;;;;;;;1.97;1.83;;;;;;;20.48;49.49;97110.88;5003616;28;20222;-27
2023/12/26 00:19:27;;;;;;;2.70;2.03;;;;;;;20.48;49.79;97113.41;5013296;28;20234;-26
2023/12/26 00:21:54;;;;;;;1.90;1.80;;;;;;;20.47;50.00;97110.03;5012832;28;20321;-28
2023/12/26 00:24:20;;;;;;;2.30;2.10;;;;;;;20.47;49.56;97107.47;5012748;28;20222;-27
2023/12/26 00:26:47;;;;;;;2.30;2.10;;;;;;;20.48;49.84;97118.53;5013086;28;20217;-26
2023/12/26 00:29:14;;;;;;;3.07;2.10;;;;;;;20.46;50.34;97110.81;5013262;28;20204;-26
2023/12/26 00:31:41;;;;;;;2.13;1.93;;;;;;;20.48;49.97;97109.19;5012947;28;20198;-28
2023/12/26 00:34:07;;;;;;;2.10;1.90;;;;;;;20.47;49.85;97111.69;5012127;28;20229;-26
2023/12/26 00:36:34;;;;;;;2.30;2.10;;;;;;;20.47;49.88;97110.03;5009707;28;20683;-28
2023/12/26 00:39:01;;;;;;;2.20;2.00;;;;;;;20.48;50.04;97103.22;5010188;28;20202;-26
2023/12/26 00:41:28;;;;;;;2.60;2.40;;;;;;;20.47;49.44;97106.59;5012757;28;20226;-26
2023/12/26 00:43:55;;;;;;;2.77;2.10;;;;;;;20.47;49.85;97104.91;5013058;28;20325;-29
2023/12/26 00:46:22;;;;;;;2.20;2.00;;;;;;;20.48;49.68;97105.75;5010922;28;20198;-27
2023/12/26 00:48:48;;;;;;;2.07;1.87;;;;;;;20.48;49.37;97096.44;5011454;28;20205;-26
2023/12/26 00:51:15;;;;;;;2.30;2.10;;;;;;;20.47;50.04;97112.56;5012220;28;20213;-27
2023/12/26 00:53:42;;;;;;;2.30;2.10;;;;;;;20.47;50.11;97106.59;5009205;28;20226;-26
2023/12/26 00:56:09;;;;;;;2.20;2.00;;;;;;;20.37;49.78;97095.25;5012427;28;20732;-26
2023/12/26 00:58:35;;;;;;;2.93;2.00;;;;;;;20.47;49.40;97112.56;5010334;28;20202;-28
2023/12/26 01:01:02;;;;;;;2.17;1.97;;;;;;;20.48;50.09;97111.75;5009843;28;20218;-26
2023/12/26 01:03:29;;;;;;;2.53;1.90;;;;;;;20.47;49.65;97115.13;5012479;28;20226;-29
2023/12/26 01:05:56;;;;;;;1.87;1.77;;;;;;;20.48;49.87;97108.31;5002097;28;20275;-26
2023/12/26 01:08:22;;;;;;;2.13;1.93;;;;;;;20.47;49.92;97111.69;5011473;28;20198;-26
2023/12/26 01:10:51;;;;;;;2.10;1.90;;;;;;;20.48;49.72;97113.41;5010743;28;20621;-26
2023/12/26 01:13:17;;;;;;;2.10;1.90;;;;;;;20.47;49.78;97110.03;5011924;28;20265;-26
2023/12/26 01:15:44;;;;;;;2.13;1.93;;;;;;;20.49;49.93;97115.16;5008600;28;20748;-26
2023/12/26 01:18:10;;;;;;;2.37;1.97;;;;;;;20.48;49.93;97121.94;5011091;28;20202;-28
2023/12/26 01:20:37;;;;;;;2.67;2.30;;;;;;;20.47;50.10;97125.34;5008104;28;20276;-28
2023/12/26 01:23:04;;;;;;;2.00;1.90;;;;;;;20.47;49.87;97112.56;5006942;28;20225;-28
2023/12/26 01:25:31;;;;;;;2.30;2.10;;;;;;;20.48;49.61;97113.41;5011461;28;20633;-27
2023/12/26 01:27:58;;;;;;;2.10;1.90;;;;;;;20.48;49.77;97123.63;5011333;28;20206;-26
2023/12/26 01:30:25;;;;;;;2.20;2.00;;;;;;;20.49;50.10;97122.81;5007134;28;20647;-29
2023/12/26 01:32:52;;;;;;;2.10;1.87;;;;;;;20.48;49.77;97127.06;5002360;28;20231;-26
2023/12/26 01:35:19;;;;;;;2.20;2.00;;;;;;;20.48;50.03;97123.63;5007439;28;20227;-28
2023/12/26 01:37:45;;;;;;;2.53;2.00;;;;;;;20.48;49.84;97129.59;5010132;28;20747;-26
2023/12/26 01:40:12;;;;;;;2.17;1.97;;;;;;;20.47;49.86;97125.34;5012155;28;20198;-27
2023/12/26 01:42:40;;;;;;;2.33;2.13;;;;;;;20.48;49.80;97129.59;5008905;28;20614;-30
2023/12/26 01:45:07;;;;;;;2.10;1.90;;;;;;;20.48;49.92;97132.16;5011740;28;20685;-26
2023/12/26 01:47:34;;;;;;;1.93;1.77;;;;;;;20.45;49.70;97124.41;5014138;28;20268;-26
2023/12/26 01:50:01;;;;;;;1.90;1.80;;;;;;;20.49;49.85;97125.38;4998479;28;20198;-26
2023/12/26 01:52:28;;;;;;;1.97;1.77;;;;;;;20.48;50.02;97121.06;4998277;28;20286;-27
2023/12/26 01:54:54;;;;;;;2.57;1.97;;;;;;;20.49;50.04;97130.47;5013448;28;20615;-26
2023/12/26 01:57:21;;;;;;;2.00;1.90;;;;;;;20.49;49.46;97127.94;5013692;28;20257;-26
2023/12/26 01:59:48;;;;;;;2.20;1.90;;;;;;;20.49;49.63;97126.22;5011881;28;20257;-26
2023/12/26 02:02:15;;;;;;;1.97;1.87;;;;;;;20.49;49.90;97121.13;5010876;28;20218;-27
2023/12/26 02:04:41;;;;;;;1.87;1.77;;;;;;;20.47;49.59;97115.13;4998328;28;20300;-26
2023/12/26 02:07:08;;;;;;;1.87;1.77;;;;;;;20.49;49.64;97117.72;4997065;28;20202;-26
2023/12/26 02:09:35;;;;;;;2.20;2.00;;;;;;;20.50;49.64;97122.00;5014294;28;20646;-26
2023/12/26 02:12:02;;;;;;;2.40;2.00;;;;;;;20.50;49.75;97119.44;5015552;28;20609;-26
2023/12/26 02:14:29;;;;;;;2.00;1.80;;;;;;;20.50;49.63;97116.88;5015279;28;20219;-27
2023/12/26 02:16:56;;;;;;;2.17;1.97;;;;;;;20.49;49.82;97116.00;5014561;28;20282;-28
2023/12/26 02:19:24;;;;;;;2.00;1.87;;;;;;;20.50;49.91;97114.34;5010616;28;20198;-28
2023/12/26 02:21:51;;;;;;;2.30;2.10;;;;;;;20.50;50.49;97116.88;5014782;28;20751;-26
2023/12/26 02:24:18;;;;;;;1.77;1.63;;;;;;;20.48;50.03;97108.31;5013463;28;20218;-26
2023/12/26 02:26:44;;;;;;;1.90;1.80;;;;;;;20.48;49.93;97111.75;4994140;28;20199;-26
2023/12/26 02:29:11;;;;;;;1.90;1.80;;;;;;;20.49;49.89;97110.91;4995047;28;20264;-27
2023/12/26 02:31:38;;;;;;;1.80;1.70;;;;;;;20.49;49.66;97110.91;4994220;28;20261;-26
2023/12/26 02:34:05;;;;;;;2.23;2.03;;;;;;;20.48;49.83;97108.31;5009562;28;20701;-26
2023/12/26 02:36:32;;;;;;;1.90;1.80;;;;;;;20.43;49.47;97104.78;4994156;28;20676;-27
2023/12/26 02:38:59;;;;;;;2.13;1.87;;;;;;;20.48;49.95;97110.88;5010069;28;20226;-27
2023/12/26 02:41:26;;;;;;;2.20;2.00;;;;;;;20.48;49.77;97105.75;5015520;28;20674;-27
2023/12/26 02:43:53;;;;;;;1.70;1.60;;;;;;;20.48;49.69;97113.41;5014747;28;20576;-26
2023/12/26 02:46:19;;;;;;;1.80;1.70;;;;;;;20.49;50.07;97112.63;5013480;28;20198;-26
2023/12/26 02:48:46;;;;;;;2.50;2.03;;;;;;;20.48;49.90;97109.19;5012172;28;20256;-29
2023/12/26 02:51:12;;;;;;;1.60;1.50;;;;;;;20.47;50.40;97110.03;5011445;28;20279;-26
2023/12/26 02:53:39;;;;;;;1.80;1.70;;;;;;;20.47;49.88;97109.16;5013446;28;20233;-26
2023/12/26 02:56:06;;;;;;;2.20;2.00;;;;;;;20.47;49.69;97111.69;5014756;28;20220;-29
2023/12/26 02:58:33;;;;;;;2.30;2.10;;;;;;;20.46;50.00;97108.28;5003570;28;20198;-26
2023/12/26 03:00:59;;;;;;;2.53;2.20;;;;;;;20.45;49.68;97113.34;5014189;28;20229;-26
2023/12/26 03:03:26;;;;;;;1.73;1.63;;;;;;;20.45;50.01;97116.75;5008427;28;20222;-28
2023/12/26 03:05:53;;;;;;;1.87;1.77;;;;;;;20.44;49.98;97115.03;5014534;28;20206;-26
2023/12/26 03:08:20;;;;;;;1.83;1.73;;;;;;;20.43;49.90;97110.75;5012794;28;20206;-26
2023/12/26 03:10:46;;;;;;;2.00;1.90;;;;;;;20.43;49.58;97112.44;5008686;28;20198;-26
2023/12/26 03:13:13;;;;;;;1.70;1.60;;;;;;;20.43;50.21;97112.44;5014535;28;20268;-36
2023/12/26 03:15:39;;;;;;;1.93;1.83;;;;;;;20.42;49.92;97114.13;5013956;28;20229;-28
2023/12/26 03:18:06;;;;;;;1.80;1.70;;;;;;;20.42;49.97;97114.13;5013749;28;20202;-26
2023/12/26 03:20:33;;;;;;;2.13;1.93;;;;;;;20.42;49.63;97105.59;5008311;28;20297;-28
2023/12/26 03:22:59;;;;;;;1.77;1.67;;;;;;;20.42;49.92;97113.25;5011594;28;20257;-27
2023/12/26 03:25:26;;;;;;;2.00;1.90;;;;;;;20.42;50.17;97118.34;5013338;28;20209;-26
2023/12/26 03:27:53;;;;;;;1.90;1.80;;;;;;;20.32;49.75;97096.84;5013507;28;20661;-26
2023/12/26 03:30:19;;;;;;;1.77;1.67;;;;;;;20.38;49.76;97104.66;5013446;28;20665;-28
2023/12/26 03:32:46;;;;;;;1.80;1.70;;;;;;;20.41;50.29;97108.97;5006990;28;20201;-26
2023/12/26 03:35:13;;;;;;;2.00;1.90;;;;;;;20.40;49.97;97103.00;5011072;28;20264;-26
2023/12/26 03:37:40;;;;;;;1.90;1.70;;;;;;;20.41;50.10;97104.75;5002985;28;20203;-29
2023/12/26 03:40:07;;;;;;;1.73;1.63;;;;;;;20.41;50.08;97114.09;5009328;28;20194;-28
2023/12/26 03:42:34;;;;;;;1.83;1.73;;;;;;;20.41;50.04;97109.84;5012081;28;20767;-26
2023/12/26 03:45:00;;;;;;;1.77;1.67;;;;;;;20.40;49.92;97110.66;5008445;28;20205;-26
2023/12/26 03:47:27;;;;;;;1.83;1.73;;;;;;;20.41;50.21;97107.31;5013797;28;20630;-26
2023/12/26 03:49:54;;;;;;;1.80;1.70;;;;;;;20.42;49.99;97128.56;5013188;28;20222;-35
2023/12/26 03:52:21;;;;;;;1.93;1.73;;;;;;;20.41;50.17;97122.63;5013851;28;20293;-26
2023/12/26 03:54:47;;;;;;;1.70;1.60;;;;;;;20.40;50.01;97123.41;5009388;28;20223;-26
2023/12/26 03:57:14;;;;;;;1.80;1.70;;;;;;;20.41;50.41;97135.38;5007480;28;20241;-26
2023/12/26 03:59:41;;;;;;;1.70;1.60;;;;;;;20.41;50.19;97137.94;5010486;28;20202;-27
2023/12/26 04:02:08;;;;;;;1.80;1.70;;;;;;;20.41;50.08;97143.03;5009236;28;20218;-26
2023/12/26 04:04:35;;;;;;;1.90;1.80;;;;;;;20.42;49.64;97142.19;5011422;28;20249;-28
2023/12/26 04:07:02;;;;;;;2.00;1.80;;;;;;;20.41;50.71;97143.03;5013780;28;20202;-26
2023/12/26 04:09:28;;;;;;;1.80;1.70;;;;;;;20.42;49.84;97148.97;5008584;28;20647;-26
2023/12/26 04:11:55;;;;;;;1.80;1.70;;;;;;;20.41;50.21;97145.59;5007278;28;20612;-29
2023/12/26 04:14:22;;;;;;;2.00;1.90;;;;;;;20.41;49.99;97148.16;5007124;28;20614;-26
2023/12/26 04:16:48;;;;;;;1.80;1.70;;;;;;;20.41;50.08;97150.69;5013337;28;20257;-26
2023/12/26 04:19:15;;;;;;;2.10;1.90;;;;;;;20.42;50.01;97151.53;5012619;28;20198;-26
2023/12/26 04:21:42;;;;;;;2.10;2.00;;;;;;;20.42;50.26;97159.19;5012573;28;20222;-27
2023/12/26 04:24:08;;;;;;;1.90;1.80;;;;;;;20.42;50.01;97157.53;5012954;28;20223;-27
2023/12/26 04:26:36;;;;;;;1.90;1.80;;;;;;;20.39;49.92;97159.97;5012685;28;20289;-26
2023/12/26 04:29:02;;;;;;;1.70;1.60;;;;;;;20.42;49.96;97164.28;5008297;28;20273;-26
2023/12/26 04:31:29;;;;;;;2.00;1.83;;;;;;;20.42;49.74;97169.41;5012534;28;20202;-26
2023/12/26 04:33:56;;;;;;;1.70;1.60;;;;;;;20.43;49.90;97168.59;5011601;28;20218;-26
2023/12/26 04:36:23;;;;;;;1.87;1.77;;;;;;;20.43;50.12;97171.16;5010855;28;20661;-27
2023/12/26 04:38:49;;;;;;;1.83;1.73;;;;;;;20.43;50.55;97174.56;5012089;28;20202;-26
2023/12/26 04:41:16;;;;;;;1.97;1.60;;;;;;;20.43;49.68;97169.44;5012672;28;20248;-28
2023/12/26 04:43:43;;;;;;;1.77;1.67;;;;;;;20.41;49.88;97178.78;4994096;28;20219;-27
2023/12/26 04:46:18;;;;;;;1.87;1.60;;;;;;;20.42;50.09;97172.84;5009485;28;20194;-26
2023/12/26 04:48:45;;;;;;;1.93;1.83;;;;;;;20.43;49.97;97171.16;5011834;28;20719;-26
2023/12/26 04:51:18;;;;;;;1.90;1.80;;;;;;;20.44;50.03;97172.88;5012067;28;20248;-26
2023/12/26 04:53:45;;;;;;;1.70;1.60;;;;;;;20.43;50.08;97194.97;5006052;28;20671;-28
2023/12/26 04:56:18;;;;;;;1.73;1.63;;;;;;;20.42;50.16;97193.25;5012129;28;20201;-26
2023/12/26 04:58:50;;;;;;;2.00;1.80;;;;;;;20.44;50.06;97193.28;5011967;28;20205;-28
2023/12/26 05:01:17;;;;;;;2.13;1.93;;;;;;;20.43;50.07;97194.97;5009150;28;20198;-26
2023/12/26 05:03:44;;;;;;;1.70;1.60;;;;;;;20.41;49.97;97196.63;5012131;28;20225;-26
2023/12/26 05:06:11;;;;;;;1.80;1.70;;;;;;;20.42;49.92;97207.69;5004047;28;20206;-29
2023/12/26 05:08:39;;;;;;;1.80;1.70;;;;;;;20.43;49.98;97217.94;5011514;28;20213;-26
2023/12/26 05:11:09;;;;;;;1.80;1.70;;;;;;;20.45;49.98;97212.88;5010494;28;20208;-28
2023/12/26 05:13:36;;;;;;;1.83;1.73;;;;;;;20.46;49.80;97212.09;5011960;28;20218;-28
2023/12/26 05:16:03;;;;;;;1.70;1.60;;;;;;;20.45;50.08;97207.78;5011761;28;20206;-28
2023/12/26 05:18:30;;;;;;;1.70;1.60;;;;;;;20.45;50.16;97223.09;5007143;28;20203;-27
2023/12/26 05:20:58;;;;;;;2.07;1.90;;;;;;;20.46;50.21;97210.38;5013915;28;20653;-26
2023/12/26 05:23:24;;;;;;;1.70;1.60;;;;;;;20.46;50.30;97212.94;5006695;28;20296;-27
2023/12/26 05:25:51;;;;;;;1.53;1.43;;;;;;;20.47;49.82;97216.34;5013415;28;20685;-26
2023/12/26 05:28:27;;;;;;;1.70;1.60;;;;;;;20.46;50.06;97224.84;5015387;28;20213;-30
2023/12/26 05:30:54;;;;;;;1.77;1.67;;;;;;;20.36;50.06;97205.84;5013078;28;20649;-26
2023/12/26 05:33:20;;;;;;;2.20;2.00;;;;;;;20.46;49.69;97228.25;5015204;28;20691;-28
2023/12/26 05:35:47;;;;;;;1.80;1.70;;;;;;;20.47;49.90;97232.53;5010753;28;20217;-26
2023/12/26 05:38:14;;;;;;;1.63;1.53;;;;;;;20.45;50.02;97225.63;5016491;28;20660;-26
2023/12/26 05:40:40;;;;;;;1.70;1.60;;;;;;;20.46;49.95;97227.41;5015858;28;20198;-33
2023/12/26 05:43:07;;;;;;;1.77;1.57;;;;;;;20.46;50.04;97230.78;5009937;28;20226;-26
2023/12/26 05:45:34;;;;;;;1.77;1.67;;;;;;;20.47;50.09;97236.78;5011365;28;20203;-26
2023/12/26 05:48:00;;;;;;;1.70;1.60;;;;;;;20.46;50.05;97232.50;5015685;28;20257;-26
2023/12/26 05:50:27;;;;;;;1.63;1.53;;;;;;;20.47;50.06;97234.22;5015555;28;20210;-26
2023/12/26 05:52:57;;;;;;;2.00;1.90;;;;;;;20.45;49.94;97230.75;5006442;28;20296;-47
2023/12/26 05:55:24;;;;;;;1.70;1.60;;;;;;;20.46;50.13;97237.59;5015432;28;20203;-26
2023/12/26 05:57:51;;;;;;;1.70;1.60;;;;;;;20.43;50.06;97224.75;5014494;28;20668;-26
2023/12/26 06:00:17;;;;;;;3.00;1.63;;;;;;;20.44;49.92;97227.34;5013629;28;20198;-29
2023/12/26 06:02:44;;;;;;;1.60;1.47;;;;;;;20.35;49.81;97214.31;5014345;28;20838;-27
2023/12/26 06:05:11;;;;;;;1.60;1.50;;;;;;;20.45;49.89;97230.75;5015497;28;20252;-26
2023/12/26 06:07:37;;;;;;;1.67;1.57;;;;;;;20.45;50.17;97233.31;5015230;28;20213;-34
2023/12/26 06:10:05;;;;;;;1.60;1.50;;;;;;;20.46;49.91;97232.50;5014519;28;20213;-26
2023/12/26 06:12:31;;;;;;;1.70;1.60;;;;;;;20.46;50.20;97235.91;5012460;28;20195;-27
2023/12/26 06:14:58;;;;;;;1.80;1.70;;;;;;;20.46;50.01;97235.06;5015659;28;20198;-31
2023/12/26 06:17:26;;;;;;;1.80;1.70;;;;;;;20.46;49.92;97243.56;5014703;28;20202;-27
2023/12/26 06:19:52;;;;;;;1.80;1.70;;;;;;;20.45;50.03;97244.38;5009093;28;20205;-26
2023/12/26 06:22:19;;;;;;;1.63;1.53;;;;;;;20.44;49.62;97244.34;5013719;28;20222;-27
2023/12/26 06:24:46;;;;;;;1.73;1.60;;;;;;;20.37;50.05;97248.38;5013771;28;20700;-26
2023/12/26 06:27:12;;;;;;;1.70;1.60;;;;;;;20.47;50.04;97269.97;5015457;28;20651;-27
2023/12/26 06:29:39;;;;;;;1.70;1.60;;;;;;;20.46;49.62;97261.41;5014733;28;20579;-26
2023/12/26 06:32:06;;;;;;;1.70;1.60;;;;;;;20.46;50.10;97268.25;5014305;28;20226;-26
2023/12/26 06:34:33;;;;;;;1.70;1.60;;;;;;;20.46;50.23;97263.13;5013509;28;20261;-32
2023/12/26 06:36:59;;;;;;;1.60;1.50;;;;;;;20.46;50.09;97269.09;5014732;28;20199;-32
2023/12/26 06:39:26;;;;;;;1.87;1.77;;;;;;;20.45;50.11;97266.47;5008707;28;20210;-27
2023/12/26 06:41:53;;;;;;;1.90;1.80;;;;;;;20.45;49.87;97277.56;5014679;28;20264;-26
2023/12/26 06:44:19;;;;;;;1.60;1.50;;;;;;;20.46;50.02;97273.34;5011266;28;20218;-33
2023/12/26 06:46:47;;;;;;;1.50;1.40;;;;;;;20.44;49.85;97270.75;5007372;28;20199;-26
2023/12/26 06:49:18;;;;;;;1.80;1.70;;;;;;;20.44;50.15;97278.41;5008820;28;20198;-27
2023/12/26 06:51:46;;;;;;;3.77;1.73;;;;;;;20.44;49.79;97286.06;5007074;28;20290;-28
2023/12/26 06:54:12;;;;;;;1.43;1.33;;;;;;;20.43;50.22;97276.66;5012079;28;20241;-27
2023/12/26 06:56:39;;;;;;;1.73;1.63;;;;;;;20.44;49.67;97283.50;5014063;28;20282;-26
2023/12/26 06:59:06;;;;;;;1.70;1.60;;;;;;;20.45;50.10;97279.25;5012901;28;20249;-28
2023/12/26 07:01:33;;;;;;;1.93;1.83;;;;;;;20.47;49.94;97285.28;5008880;28;20685;-26
2023/12/26 07:04:00;;;;;;;1.70;1.60;;;;;;;20.49;49.67;97293.84;5010130;28;20257;-28
2023/12/26 07:06:27;;;;;;;2.00;1.80;;;;;;;20.50;50.35;97295.56;5013042;28;20217;-26
2023/12/26 07:08:54;;;;;;;1.83;1.73;;;;;;;20.51;50.35;97300.72;5009097;28;20745;-28
2023/12/26 07:11:20;;;;;;;1.60;1.50;;;;;;;20.52;50.05;97306.72;5006201;28;20204;-28
2023/12/26 07:13:47;;;;;;;1.73;1.63;;;;;;;20.53;49.89;97303.31;5013922;28;20778;-27
2023/12/26 07:16:14;;;;;;;1.83;1.73;;;;;;;20.53;49.70;97309.31;5013545;28;20198;-29
2023/12/26 07:18:40;;;;;;;1.77;1.67;;;;;;;20.54;49.85;97312.75;5013736;28;20206;-32
2023/12/26 07:21:08;;;;;;;2.50;1.63;;;;;;;20.54;50.01;97318.69;5011467;28;20206;-28
2023/12/26 07:23:34;;;;;;;1.40;1.30;;;;;;;20.55;49.76;97323.00;5013828;28;20308;-29
2023/12/26 07:26:01;;;;;;;1.60;1.50;;;;;;;20.55;49.75;97317.88;5003996;28;20607;-28
2023/12/26 07:28:28;;;;;;;1.57;1.47;;;;;;;20.57;49.83;97338.34;5011503;28;20269;-26
2023/12/26 07:30:54;;;;;;;1.70;1.60;;;;;;;20.56;49.91;97332.38;5012118;28;20198;-26
2023/12/26 07:33:21;;;;;;;1.50;1.40;;;;;;;20.55;49.81;97335.75;5011142;28;20238;-29
2023/12/26 07:35:48;;;;;;;1.77;1.67;;;;;;;20.55;49.98;97332.31;5012359;28;20264;-26
2023/12/26 07:38:16;;;;;;;1.70;1.60;;;;;;;20.55;50.07;97332.31;5008768;28;20205;-26
2023/12/26 07:40:42;;;;;;;1.73;1.63;;;;;;;20.54;49.66;97331.44;5007914;28;20269;-28
2023/12/26 07:43:10;;;;;;;1.70;1.60;;;;;;;20.54;49.37;97326.34;5010455;28;20658;-26
2023/12/26 07:45:36;;;;;;;1.57;1.47;;;;;;;20.53;49.61;97339.06;5007818;28;20586;-35
2023/12/26 07:48:03;;;;;;;1.70;1.60;;;;;;;20.52;49.89;97335.63;5010003;28;20256;-26
2023/12/26 07:50:30;;;;;;;1.50;1.40;;;;;;;20.54;49.96;97338.25;5005242;28;20253;-26
2023/12/26 07:52:57;;;;;;;1.57;1.47;;;;;;;20.54;49.73;97349.31;5008699;28;22064;-26
2023/12/26 07:55:24;;;;;;;1.53;1.43;;;;;;;20.56;49.74;97346.81;5007404;28;20206;-27
2023/12/26 07:57:51;;;;;;;1.50;1.40;;;;;;;20.52;49.94;97335.63;5010485;28;20206;-27
2023/12/26 08:00:17;;;;;;;1.70;1.60;;;;;;;20.44;49.82;97339.66;5009255;28;20234;-26
2023/12/26 08:02:44;;;;;;;1.60;1.50;;;;;;;20.53;49.98;97346.72;5009887;28;20630;-31
2023/12/26 08:05:11;;;;;;;1.50;1.40;;;;;;;20.53;49.90;97355.25;5008062;28;20285;-26
2023/12/26 08:07:38;;;;;;;1.27;1.20;;;;;;;20.52;50.01;97353.50;5007094;28;20266;-27
2023/12/26 08:10:05;;;;;;;1.60;1.50;;;;;;;20.52;49.82;97363.72;5011814;28;20202;-26
2023/12/26 08:12:32;;;;;;;1.70;1.60;;;;;;;20.52;49.77;97356.06;5012557;28;20198;-28
2023/12/26 08:14:59;;;;;;;1.60;1.50;;;;;;;20.51;49.95;97364.53;5010985;28;20209;-28
2023/12/26 08:17:26;;;;;;;1.63;1.53;;;;;;;20.51;49.95;97369.66;5012225;28;20213;-26
2023/12/26 08:19:53;;;;;;;1.80;1.70;;;;;;;20.51;49.95;97377.31;5012236;28;20672;-29
2023/12/26 08:22:19;;;;;;;1.67;1.57;;;;;;;20.50;50.38;97379.81;5006975;28;20205;-27
2023/12/26 08:24:46;;;;;;;1.57;1.47;;;;;;;20.50;50.03;97392.59;5001879;28;20213;-26
2023/12/26 08:27:12;;;;;;;1.73;1.63;;;;;;;20.50;49.22;97395.13;5012182;28;20269;-26
2023/12/26 08:29:39;;;;;;;1.60;1.50;;;;;;;20.50;49.81;97392.59;5011007;28;20206;-27
2023/12/26 08:32:06;;;;;;;1.57;1.47;;;;;;;20.49;49.81;97391.69;5012041;28;20198;-27
2023/12/26 08:34:32;;;;;;;1.70;1.60;;;;;;;20.48;49.96;97399.31;5011215;28;20707;-26
2023/12/26 08:36:59;;;;;;;1.40;1.30;;;;;;;20.48;49.82;97407.84;5012495;28;20568;-26
2023/12/26 08:39:26;;;;;;;1.77;1.67;;;;;;;20.49;50.04;97426.59;5012072;28;20234;-31
2023/12/26 08:41:52;;;;;;;1.70;1.60;;;;;;;20.48;49.86;97430.81;5012596;28;20640;-27
2023/12/26 08:44:19;;;;;;;1.50;1.40;;;;;;;20.47;49.92;97434.22;5004589;28;20218;-26
2023/12/26 08:46:46;;;;;;;1.57;1.47;;;;;;;20.47;50.35;97439.31;5010612;28;20206;-30
2023/12/26 08:49:12;;;;;;;1.70;1.60;;;;;;;20.48;50.23;97438.47;5007766;28;20265;-32
2023/12/26 08:51:39;;;;;;;1.70;1.60;;;;;;;20.51;50.76;97448.78;5008863;28;20261;-26
2023/12/26 08:54:06;;;;;;;1.80;1.70;;;;;;;20.50;49.21;97446.19;5007244;28;21165;-26
2023/12/26 08:56:36;;;;;;;2.20;2.00;;;;;;;20.50;49.66;97454.72;5006450;28;20202;-26
2023/12/26 08:59:03;;;;;;;1.60;1.50;;;;;;;20.48;49.59;97447.81;5011082;28;20206;-29
2023/12/26 09:01:29;;;;;;;1.70;1.60;;;;;;;20.50;49.60;97458.97;5005238;28;20256;-26
2023/12/26 09:03:56;;;;;;;1.60;1.50;;;;;;;20.50;49.94;97448.75;5002707;28;20233;-26
2023/12/26 09:06:22;;;;;;;1.73;1.60;;;;;;;20.49;50.06;97468.28;5012277;28;20203;-39
2023/12/26 09:08:50;;;;;;;1.60;1.50;;;;;;;20.49;50.03;97463.19;4999615;28;20199;-26
2023/12/26 09:11:16;;;;;;;1.63;1.53;;;;;;;20.49;49.58;97458.06;5009758;28;20200;-26
2023/12/26 09:13:43;;;;;;;1.87;1.70;;;;;;;20.49;49.92;97468.28;5009913;28;20245;-31
2023/12/26 09:16:09;;;;;;;1.90;1.70;;;;;;;20.50;49.79;97472.59;5007674;28;20284;-28
2023/12/26 09:18:37;;;;;;;1.47;1.37;;;;;;;20.51;49.92;97465.78;5009660;28;20213;-28
2023/12/26 09:21:04;;;;;;;1.60;1.50;;;;;;;20.50;49.58;97462.38;5009146;28;20202;-34
2023/12/26 09:23:31;;;;;;;2.00;1.80;;;;;;;20.51;49.90;97464.09;5002823;28;20222;-37
2023/12/26 09:25:57;;;;;;;1.80;1.70;;;;;;;20.51;49.85;97461.56;5010323;28;20202;-27
2023/12/26 09:28:24;;;;;;;1.40;1.30;;;;;;;20.51;50.39;97461.56;5008701;28;20627;-26
2023/12/26 09:30:51;;;;;;;1.63;1.53;;;;;;;20.51;49.82;97474.31;5009534;28;20201;-27
2023/12/26 09:33:17;;;;;;;1.53;1.43;;;;;;;20.51;50.01;97469.22;4999224;28;20305;-26
2023/12/26 09:35:44;;;;;;;3.50;1.70;;;;;;;20.52;49.82;97475.19;5010341;28;20199;-30
2023/12/26 09:38:11;;;;;;;1.60;1.50;;;;;;;20.52;50.03;97470.09;4999923;28;20893;-39
2023/12/26 09:40:37;;;;;;;1.50;1.40;;;;;;;20.51;50.01;97469.22;5001748;28;20206;-27
2023/12/26 09:43:04;;;;;;;1.70;1.60;;;;;;;20.52;49.98;97475.19;4997513;28;20244;-27
2023/12/26 09:45:31;;;;;;;1.70;1.60;;;;;;;20.53;49.94;97474.38;4999426;28;20591;-41
2023/12/26 09:47:58;;;;;;;1.50;1.40;;;;;;;20.53;49.88;97477.81;4997091;28;20875;-42
2023/12/26 09:50:24;;;;;;;1.63;1.53;;;;;;;20.53;49.79;97479.47;4998479;28;20623;-31
2023/12/26 09:52:53;;;;;;;2.00;1.80;;;;;;;20.53;49.70;97488.00;4997308;28;20222;-32
2023/12/26 09:55:20;;;;;;;1.60;1.50;;;;;;;20.52;49.79;97493.91;4998303;28;20729;-26
2023/12/26 09:57:47;;;;;;;1.67;1.40;;;;;;;20.53;49.70;97498.22;4997313;28;20206;-28
2023/12/26 10:00:13;;;;;;;1.80;1.70;;;;;;;20.54;49.94;97502.50;4996229;28;20206;-37
2023/12/26 10:02:42;;;;;;;1.70;1.60;;;;;;;20.53;49.86;97498.22;4996277;28;20225;-28
2023/12/26 10:05:09;;;;;;;1.60;1.50;;;;;;;20.50;49.97;97502.34;5000248;28;20213;-26
2023/12/26 10:07:35;;;;;;;1.60;1.50;;;;;;;20.54;49.53;97511.88;5001756;28;20573;-28
2023/12/26 10:10:02;;;;;;;1.37;1.30;;;;;;;20.54;49.95;97509.31;5001930;28;20284;-27
2023/12/26 10:12:29;;;;;;;1.73;1.53;;;;;;;20.54;49.82;97519.53;5004740;28;20210;-26
2023/12/26 10:15:01;;;;;;;1.70;1.60;;;;;;;20.50;49.74;97505.78;5001898;28;20207;-26
2023/12/26 10:17:29;;;;;;;1.70;1.60;;;;;;;20.52;49.87;97501.56;5002867;28;20213;-33
2023/12/26 10:19:59;;;;;;;2.07;1.80;;;;;;;20.54;49.96;97511.88;5001733;28;20210;-36
2023/12/26 10:22:26;;;;;;;1.60;1.50;;;;;;;20.55;49.88;97509.38;5002307;28;20218;-29
2023/12/26 10:24:55;;;;;;;1.60;1.50;;;;;;;20.54;49.81;97502.50;5000592;28;20226;-32
2023/12/26 10:27:22;;;;;;;1.77;1.67;;;;;;;20.52;49.64;97505.84;5002125;28;20260;-26
2023/12/26 10:29:54;;;;;;;1.87;1.60;;;;;;;20.56;50.02;97502.56;5001102;28;20202;-31
2023/12/26 10:32:25;;;;;;;2.20;1.70;;;;;;;20.55;50.06;97503.38;4999473;28;20260;-27
2023/12/26 10:34:52;;;;;;;1.80;1.70;;;;;;;20.54;50.04;97507.63;5002939;28;20941;-29
2023/12/26 10:37:22;;;;;;;1.60;1.50;;;;;;;20.54;50.08;97511.88;5002458;28;20218;-32
2023/12/26 10:39:49;;;;;;;1.63;1.53;;;;;;;20.55;50.05;97511.03;5002869;28;20715;-29
2023/12/26 10:42:16;;;;;;;1.80;1.70;;;;;;;20.54;49.93;97514.44;5003985;28;20213;-31
2023/12/26 10:45:07;;;;;;;4.07;1.50;;;;;;;20.53;50.09;97507.56;5003214;28;20228;-37
2023/12/26 10:47:34;;;;;;;1.57;1.47;;;;;;;20.54;49.79;97505.06;5004414;28;20635;-29
2023/12/26 10:50:02;;;;;;;1.87;1.70;;;;;;;20.55;49.85;97504.25;5001944;28;20234;-28
2023/12/26 10:52:29;;;;;;;1.50;1.40;;;;;;;20.55;49.94;97495.72;5000334;28;20596;-41
2023/12/26 10:55:00;;;;;;;2.00;1.60;;;;;;;20.54;49.93;97489.75;5001434;28;20237;-28
2023/12/26 10:57:33;;;;;;;1.70;1.60;;;;;;;20.52;49.96;97498.19;5000746;28;20210;-31
2023/12/26 11:00:49;;;;;;;1.57;1.47;;;;;;;20.55;49.87;97503.38;4985902;28;20214;-32
2023/12/26 13:52:22;;;;;;;1.83;1.73;;;;;;;20.58;49.35;97550.31;5014633;28;20210;-27
2023/12/26 13:54:49;;;;;;;2.07;1.87;;;;;;;20.58;49.55;97557.97;5015188;28;20218;-26
2023/12/26 13:57:15;;;;;;;2.70;1.90;;;;;;;20.57;49.19;97553.66;5015208;28;20672;-26
2023/12/26 13:59:42;;;;;;;2.47;2.00;;;;;;;20.59;49.29;97553.72;5015528;28;20226;-26
2023/12/26 14:02:09;;;;;;;2.80;1.90;;;;;;;20.49;49.39;97544.88;5015310;28;20680;-27
2023/12/26 14:04:35;;;;;;;3.53;2.13;;;;;;;20.58;49.55;97570.75;5014176;28;20661;-27
2023/12/26 14:07:06;;;;;;;2.07;1.70;;;;;;;20.58;49.49;97572.41;5015572;28;20202;-28
2023/12/26 14:09:33;;;;;;;1.73;1.63;;;;;;;20.57;49.62;97571.53;5015180;28;20276;-28
2023/12/26 14:12:00;;;;;;;9.20;2.30;;;;;;;20.57;49.33;97586.84;5015021;28;20281;-26
2023/12/26 14:14:27;;;;;;;1.70;1.60;;;;;;;20.59;49.54;97586.91;5014840;28;20269;-26
2023/12/26 14:16:53;;;;;;;2.97;1.90;;;;;;;20.58;49.18;97591.19;5015704;28;20645;-28
2023/12/26 14:19:20;;;;;;;2.10;1.90;;;;;;;20.57;49.62;97589.41;5013705;28;20720;-27
2023/12/26 14:21:47;;;;;;;2.00;1.80;;;;;;;20.58;49.34;97585.19;5012595;28;20226;-26
2023/12/26 14:24:13;;;;;;;1.93;1.80;;;;;;;20.59;49.56;97589.47;5008366;28;20234;-30